Time;durP1;ratioP1;P1;durP2;ratioP2;P2;SDS_P1;SDS_P2;PMS_P1;PMS_P2;Temp;Humidity;BMP_temperature;BMP_pressure;BME280_temperature;BME280_humidity;BME280_pressure;Samples;Min_cycle;Max_cycle;Signal;HPM_P1;HPM_P2
2021/07/11 00:00:33;;;;;;;5.18;2.10;;;;;;;23.18;57.76;100026.25;5054711;28;20127;-74
2021/07/11 00:03:02;;;;;;;5.97;2.35;;;;;;;23.17;57.87;100035.44;5054988;28;20119;-74
2021/07/11 00:05:31;;;;;;;5.68;2.25;;;;;;;23.01;58.35;100024.63;5054942;28;20040;-75
2021/07/11 00:08:00;;;;;;;4.53;2.13;;;;;;;22.95;58.85;100028.88;5055212;28;20115;-75
2021/07/11 00:10:29;;;;;;;5.53;2.38;;;;;;;22.95;58.73;100019.88;5054761;28;20033;-74
2021/07/11 00:12:59;;;;;;;4.95;2.22;;;;;;;22.95;58.24;100020.72;5055081;28;20502;-75
2021/07/11 00:15:28;;;;;;;3.58;2.15;;;;;;;22.91;58.60;100024.00;5054653;28;20080;-77
2021/07/11 00:17:57;;;;;;;4.97;2.00;;;;;;;22.84;57.99;100019.25;5054827;28;20045;-77
2021/07/11 00:20:28;;;;;;;5.57;1.95;;;;;;;22.86;58.48;100021.78;5054839;28;20049;-77
2021/07/11 00:22:57;;;;;;;4.20;1.85;;;;;;;22.97;58.02;100015.09;5055109;28;20107;-76
2021/07/11 00:25:27;;;;;;;3.90;2.20;;;;;;;22.89;58.80;100016.03;5054458;28;20041;-76
2021/07/11 00:27:56;;;;;;;6.03;2.10;;;;;;;22.85;59.13;100004.63;5054671;28;20099;-78
2021/07/11 00:30:25;;;;;;;5.45;1.90;;;;;;;22.75;59.12;100012.13;5054254;28;20044;-75
2021/07/11 00:32:55;;;;;;;5.10;2.30;;;;;;;22.78;58.86;100002.78;5054564;28;20059;-77
2021/07/11 00:35:24;;;;;;;3.47;1.90;;;;;;;22.67;59.28;99995.84;5054362;28;20072;-74
2021/07/11 00:37:52;;;;;;;6.75;2.03;;;;;;;22.72;58.73;100003.50;5054566;28;20041;-77
2021/07/11 00:40:21;;;;;;;3.58;2.10;;;;;;;22.80;59.04;99998.88;5054398;28;20033;-76
2021/07/11 00:42:51;;;;;;;3.22;2.00;;;;;;;22.59;59.47;99995.91;5054142;28;20106;-75
2021/07/11 00:45:20;;;;;;;4.60;2.20;;;;;;;22.60;60.06;99994.03;5054322;28;20127;-75
2021/07/11 00:47:48;;;;;;;4.70;1.80;;;;;;;22.53;60.13;99999.31;5054397;28;20079;-75
2021/07/11 00:50:18;;;;;;;6.97;2.20;;;;;;;22.47;60.63;99994.56;5054133;28;20052;-75
2021/07/11 00:52:47;;;;;;;5.32;2.17;;;;;;;22.45;61.25;99985.75;5053725;28;20463;-75
2021/07/11 00:55:16;;;;;;;4.00;2.30;;;;;;;22.37;61.38;99978.47;5053956;28;20495;-78
2021/07/11 00:57:44;;;;;;;7.63;2.10;;;;;;;22.37;61.75;99977.63;5053946;28;20067;-74
2021/07/11 01:00:14;;;;;;;5.32;2.20;;;;;;;22.45;61.13;99981.16;5054119;28;20091;-76
2021/07/11 01:02:52;;;;;;;6.25;2.25;;;;;;;22.36;61.69;99984.06;5054085;28;20483;-88
2021/07/11 01:05:22;;;;;;;4.63;2.33;;;;;;;22.42;61.51;99983.38;5053993;28;20045;-77
2021/07/11 01:08:05;;;;;;;5.22;2.50;;;;;;;22.32;61.94;99983.59;5052872;28;20051;-78
2021/07/11 01:10:42;;;;;;;4.18;1.90;;;;;;;22.27;60.79;99983.25;5053486;28;20044;-77
2021/07/11 01:13:14;;;;;;;6.05;2.10;;;;;;;22.31;60.86;99979.19;5052628;28;20056;-78
2021/07/11 01:15:47;;;;;;;7.77;2.30;;;;;;;22.41;58.78;99989.84;5053292;28;20044;-78
2021/07/11 01:18:18;;;;;;;;;;;;;;;22.38;59.64;99979.31;5054443;28;20799;-78
2021/07/11 01:20:50;;;;;;;3.83;1.83;;;;;;;22.39;59.41;99975.56;5053484;28;19921;-76
2021/07/11 01:23:32;;;;;;;5.53;2.17;;;;;;;22.34;59.34;99977.97;5053654;28;20487;-78
2021/07/11 01:26:03;;;;;;;5.18;2.13;;;;;;;22.33;59.38;99970.84;5053035;28;20055;-80
2021/07/11 01:28:32;;;;;;;5.05;1.90;;;;;;;22.31;59.56;99972.91;5053588;28;20099;-80
2021/07/11 01:31:02;;;;;;;6.53;2.00;;;;;;;22.27;60.01;99970.50;5053732;28;20052;-80
2021/07/11 01:33:32;;;;;;;7.00;2.00;;;;;;;22.23;60.53;99971.06;5053435;28;20091;-80
2021/07/11 01:36:01;;;;;;;6.57;1.90;;;;;;;22.22;60.42;99972.91;5053763;28;20458;-80
2021/07/11 01:38:32;;;;;;;5.30;2.00;;;;;;;22.09;61.34;99969.88;5052936;28;20041;-78
2021/07/11 01:41:04;;;;;;;4.82;2.00;;;;;;;22.12;60.84;99966.84;5053593;28;20045;-78
2021/07/11 01:43:33;;;;;;;5.28;2.00;;;;;;;22.06;61.33;99972.91;5053014;28;20049;-78
2021/07/11 01:46:03;;;;;;;6.93;1.90;;;;;;;22.05;61.73;99979.38;5053271;28;20091;-79
2021/07/11 01:48:33;;;;;;;3.28;2.00;;;;;;;21.99;62.34;99985.47;5053205;28;20048;-78
2021/07/11 01:51:02;;;;;;;3.83;2.13;;;;;;;21.98;62.06;99986.50;5053118;28;20041;-78
2021/07/11 01:53:33;;;;;;;6.25;2.15;;;;;;;21.97;63.04;99982.94;5052821;28;20103;-75
2021/07/11 01:56:05;;;;;;;4.97;1.80;;;;;;;22.08;61.97;99976.34;5053142;28;20055;-75
2021/07/11 01:58:33;;;;;;;5.05;1.95;;;;;;;22.00;62.49;99979.03;5052938;28;20138;-73
2021/07/11 02:01:03;;;;;;;3.67;1.75;;;;;;;22.01;62.49;99983.47;5052863;28;20048;-73
2021/07/11 02:03:32;;;;;;;4.75;1.70;;;;;;;22.15;62.13;99980.06;5052685;28;20048;-73
2021/07/11 02:06:00;;;;;;;4.32;2.05;;;;;;;22.12;62.45;99977.69;5052787;28;20045;-73
2021/07/11 02:08:29;;;;;;;4.25;1.70;;;;;;;21.98;62.67;99981.06;5052392;28;20131;-73
2021/07/11 02:10:58;;;;;;;5.63;2.00;;;;;;;21.95;62.79;99979.56;5053416;28;20055;-73
2021/07/11 02:13:34;;;;;;;4.57;1.73;;;;;;;21.90;63.13;99987.34;5052980;28;20454;-73
2021/07/11 02:16:06;;;;;;;5.18;1.80;;;;;;;21.91;63.13;99982.81;5053166;28;20037;-74
2021/07/11 02:18:35;;;;;;;6.32;1.90;;;;;;;21.93;62.54;99981.59;5052066;28;20080;-75
2021/07/11 02:21:03;;;;;;;4.05;1.90;;;;;;;21.90;63.71;99981.06;5052787;28;20045;-73
2021/07/11 02:23:35;;;;;;;4.25;1.70;;;;;;;21.90;62.95;99978.38;5052517;28;20399;-74
2021/07/11 02:26:04;;;;;;;3.60;1.90;;;;;;;21.91;63.33;99983.66;5052743;28;20045;-74
2021/07/11 02:28:36;;;;;;;4.47;2.17;;;;;;;22.03;62.97;99977.84;5052219;28;20091;-73
2021/07/11 02:31:11;;;;;;;4.38;2.05;;;;;;;21.97;62.97;99982.94;5052601;28;20399;-73
2021/07/11 02:33:40;;;;;;;5.10;1.83;;;;;;;21.96;63.09;99981.25;5052270;28;20041;-74
2021/07/11 02:36:13;;;;;;;3.53;2.17;;;;;;;22.03;63.24;99986.84;5051399;28;20482;-74
2021/07/11 02:38:47;;;;;;;3.78;1.88;;;;;;;21.98;62.94;99989.22;5052351;28;20051;-74
2021/07/11 02:41:17;;;;;;;3.50;2.40;;;;;;;22.04;63.59;99987.69;5052643;28;20120;-71
2021/07/11 02:43:49;;;;;;;6.78;2.03;;;;;;;21.92;63.89;99992.63;5052102;28;20410;-72
2021/07/11 02:46:21;;;;;;;4.72;2.03;;;;;;;21.98;63.81;99989.22;5052776;28;20055;-72
2021/07/11 02:48:53;;;;;;;5.05;2.20;;;;;;;21.93;64.52;99997.06;5052217;28;20244;-72
2021/07/11 02:51:25;;;;;;;3.63;2.20;;;;;;;21.96;64.38;99991.25;5052505;28;20034;-72
2021/07/11 02:53:58;;;;;;;5.13;2.60;;;;;;;21.94;65.10;99987.88;5052084;28;20033;-72
2021/07/11 02:56:33;;;;;;;4.97;2.75;;;;;;;21.97;65.07;99992.97;5052642;28;20045;-74
2021/07/11 02:59:05;;;;;;;7.55;2.50;;;;;;;21.92;65.58;99989.94;5052553;28;20045;-73
2021/07/11 03:01:34;;;;;;;4.50;2.50;;;;;;;21.99;65.74;99993.63;5052104;28;20048;-74
2021/07/11 03:04:05;;;;;;;6.25;3.10;;;;;;;21.99;66.27;99990.91;5051193;28;20403;-73
2021/07/11 03:06:34;;;;;;;4.10;2.95;;;;;;;21.99;66.26;99988.19;5052173;28;20546;-74
2021/07/11 03:09:05;;;;;;;4.72;3.35;;;;;;;21.99;66.73;99997.19;5052192;28;20147;-73
2021/07/11 03:11:38;;;;;;;8.13;4.05;;;;;;;21.94;67.48;99998.75;5052190;28;20094;-74
2021/07/11 03:14:10;;;;;;;8.68;3.90;;;;;;;21.93;68.15;100002.47;5052319;28;20048;-74
2021/07/11 03:16:41;;;;;;;8.05;3.85;;;;;;;22.04;68.13;99996.69;5051979;28;20094;-74
2021/07/11 03:19:11;;;;;;;7.15;3.28;;;;;;;22.09;67.83;99990.75;5052112;28;20051;-78
2021/07/11 03:21:40;;;;;;;5.70;3.90;;;;;;;22.17;68.17;100005.19;5052095;28;20041;-76
2021/07/11 03:24:12;;;;;;;7.28;4.45;;;;;;;22.26;68.63;100011.44;5052365;28;20060;-76
2021/07/11 03:26:42;;;;;;;6.05;4.03;;;;;;;22.29;68.27;100011.09;5051809;28;20060;-76
2021/07/11 03:29:25;;;;;;;10.90;4.72;;;;;;;22.37;68.04;100012.94;5051973;28;20052;-76
2021/07/11 03:31:55;;;;;;;;;;;;;;;22.41;68.56;100012.44;5055270;28;20041;-76
2021/07/11 03:34:27;;;;;;;8.10;4.72;;;;;;;22.47;68.97;100016.31;5055521;28;20424;-75
2021/07/11 03:36:58;;;;;;;8.47;4.63;;;;;;;22.67;67.78;100016.75;5055428;28;20052;-75
2021/07/11 03:39:29;;;;;;;8.35;4.75;;;;;;;22.72;67.61;100012.50;5055683;28;20313;-75
2021/07/11 03:42:02;;;;;;;9.73;4.75;;;;;;;22.79;68.43;100016.19;5055460;28;20068;-75
2021/07/11 03:44:34;;;;;;;8.35;5.55;;;;;;;23.00;67.90;100009.34;5055890;28;20041;-75
2021/07/11 03:47:06;;;;;;;10.68;4.80;;;;;;;23.48;65.59;100010.91;5055744;28;20466;-74
2021/07/11 03:49:34;;;;;;;7.55;5.00;;;;;;;23.62;65.95;100007.41;5055316;28;20048;-74
2021/07/11 03:52:05;;;;;;;9.65;5.60;;;;;;;23.92;65.30;99992.00;5055274;28;20044;-73
2021/07/11 03:54:35;;;;;;;7.07;5.25;;;;;;;24.25;64.77;99986.22;5055012;28;20080;-74
2021/07/11 03:57:04;;;;;;;10.90;6.40;;;;;;;24.45;64.28;99990.13;5055306;28;20099;-74
2021/07/11 03:59:35;;;;;;;9.60;6.13;;;;;;;24.72;63.84;99982.31;5055156;28;20048;-73
2021/07/11 04:02:07;;;;;;;9.55;7.53;;;;;;;25.19;63.33;99979.13;5054043;28;20045;-77
2021/07/11 04:04:40;;;;;;;9.03;7.13;;;;;;;25.51;62.31;99977.75;5055159;28;20468;-75
2021/07/11 04:07:08;;;;;;;11.52;6.50;;;;;;;25.77;61.46;99976.31;5055032;28;20045;-78
2021/07/11 04:09:38;;;;;;;12.63;7.43;;;;;;;25.24;63.57;99978.53;5055018;28;20040;-74
2021/07/11 04:12:09;;;;;;;9.65;7.28;;;;;;;24.83;65.14;99990.00;5054974;28;20041;-76
2021/07/11 04:14:39;;;;;;;9.82;7.35;;;;;;;24.44;66.76;99985.69;5054681;28;20450;-75
2021/07/11 04:17:10;;;;;;;10.10;7.93;;;;;;;24.52;66.83;99996.50;5054402;28;20049;-81
2021/07/11 04:19:41;;;;;;;9.70;7.47;;;;;;;24.39;67.35;100004.47;5054385;28;20080;-80
2021/07/11 04:22:15;;;;;;;11.85;8.40;;;;;;;24.35;67.34;100003.19;5054708;28;20487;-80
2021/07/11 04:24:45;;;;;;;12.80;7.78;;;;;;;24.31;67.87;100006.41;5054456;28;20065;-80
2021/07/11 04:27:13;;;;;;;12.65;8.07;;;;;;;24.38;67.50;100005.53;5055007;28;20480;-81
2021/07/11 04:29:44;;;;;;;13.88;8.48;;;;;;;24.32;67.39;100009.03;5054177;28;20071;-74
2021/07/11 04:32:13;;;;;;;11.77;8.05;;;;;;;24.22;67.86;100006.53;5054489;28;20047;-73
2021/07/11 04:34:42;;;;;;;14.00;8.20;;;;;;;23.94;68.78;100006.28;5054013;28;20045;-74
2021/07/11 04:37:12;;;;;;;10.95;8.43;;;;;;;24.07;67.89;100011.09;5054576;28;20411;-74
2021/07/11 04:39:41;;;;;;;11.95;7.90;;;;;;;24.17;68.06;99999.94;5054233;28;20037;-73
2021/07/11 04:42:12;;;;;;;10.55;7.88;;;;;;;23.83;68.84;100000.41;5054229;28;20095;-74
2021/07/11 04:44:44;;;;;;;11.05;8.10;;;;;;;24.02;68.69;100001.78;5053812;28;20084;-74
2021/07/11 04:47:13;;;;;;;11.88;7.88;;;;;;;24.14;67.97;100003.88;5054524;28;20051;-74
2021/07/11 04:49:41;;;;;;;12.45;8.10;;;;;;;24.26;67.61;100009.72;5053831;28;20132;-74
2021/07/11 04:52:10;;;;;;;11.45;7.80;;;;;;;24.18;67.57;100007.06;5054166;28;20107;-74
2021/07/11 04:54:38;;;;;;;10.85;7.93;;;;;;;24.09;67.51;100014.47;5053945;28;20047;-74
2021/07/11 04:57:07;;;;;;;11.48;8.02;;;;;;;24.33;66.81;100009.84;5053965;28;20063;-73
2021/07/11 04:59:35;;;;;;;11.15;7.80;;;;;;;25.05;64.58;100015.47;5054157;28;20045;-75
2021/07/11 05:02:05;;;;;;;10.13;7.38;;;;;;;24.83;65.07;100012.66;5053503;28;20127;-77
2021/07/11 05:04:34;;;;;;;10.85;7.50;;;;;;;24.98;64.56;100014.50;5054029;28;20048;-76
2021/07/11 05:07:02;;;;;;;9.05;7.25;;;;;;;25.24;63.44;100008.53;5053547;28;20087;-84
2021/07/11 05:09:30;;;;;;;10.88;7.70;;;;;;;26.11;60.71;100016.53;5053669;28;20064;-73
2021/07/11 05:11:59;;;;;;;11.52;7.38;;;;;;;25.93;60.79;100009.66;5053244;28;20082;-73
2021/07/11 05:14:27;;;;;;;10.07;7.28;;;;;;;26.81;57.92;100010.91;5053744;28;20095;-75
2021/07/11 05:16:55;;;;;;;9.82;7.28;;;;;;;27.23;57.02;100006.25;5053154;28;20049;-74
2021/07/11 05:19:25;;;;;;;10.85;6.55;;;;;;;27.84;54.79;100008.91;5053650;28;20037;-73
2021/07/11 05:21:53;;;;;;;9.05;6.60;;;;;;;27.80;53.95;100007.66;5053155;28;20040;-74
2021/07/11 05:24:22;;;;;;;9.52;6.40;;;;;;;28.03;53.27;100006.38;5053331;28;20049;-74
2021/07/11 05:26:52;;;;;;;11.23;6.35;;;;;;;28.15;53.03;100008.25;5053107;28;20048;-74
2021/07/11 05:29:20;;;;;;;8.35;6.22;;;;;;;28.02;52.86;100000.06;5053680;28;20045;-73
2021/07/11 05:31:49;;;;;;;8.07;6.38;;;;;;;28.73;51.56;100010.28;5053069;28;20082;-74
2021/07/11 05:34:17;;;;;;;9.25;6.53;;;;;;;29.07;50.33;100023.69;5053533;28;20045;-74
2021/07/11 05:36:46;;;;;;;9.05;6.38;;;;;;;28.90;50.96;100013.44;5053705;28;20044;-71
2021/07/11 05:39:15;;;;;;;8.60;6.13;;;;;;;28.80;51.10;100019.34;5053176;28;20380;-74
2021/07/11 05:41:43;;;;;;;9.43;6.82;;;;;;;28.36;52.25;100020.06;5053209;28;20048;-72
2021/07/11 05:44:11;;;;;;;8.93;6.25;;;;;;;28.46;52.14;100029.53;5052953;28;20468;-76
2021/07/11 05:46:40;;;;;;;10.40;7.03;;;;;;;28.00;52.64;100035.06;5053123;28;20057;-75
2021/07/11 05:49:08;;;;;;;9.80;6.32;;;;;;;28.13;53.25;100029.56;5052887;28;20051;-74
2021/07/11 05:51:36;;;;;;;10.52;6.45;;;;;;;28.37;52.75;100029.97;5052961;28;20041;-74
2021/07/11 05:54:06;;;;;;;11.18;7.05;;;;;;;27.54;54.13;100029.50;5052269;28;20041;-70
2021/07/11 05:56:34;;;;;;;9.77;6.60;;;;;;;27.73;54.48;100034.19;5052833;28;20048;-67
2021/07/11 05:59:03;;;;;;;7.50;6.35;;;;;;;28.08;53.34;100037.56;5052593;28;20041;-72
2021/07/11 06:01:31;;;;;;;9.68;6.43;;;;;;;28.59;51.57;100036.09;5052882;28;20037;-72
2021/07/11 06:04:00;;;;;;;7.68;6.18;;;;;;;29.39;50.08;100042.97;5052354;28;20475;-75
2021/07/11 06:06:28;;;;;;;11.10;6.63;;;;;;;28.55;51.77;100040.31;5052776;28;20053;-73
2021/07/11 06:08:56;;;;;;;9.63;6.63;;;;;;;27.69;54.52;100049.34;5052754;28;20051;-73
2021/07/11 06:11:26;;;;;;;8.38;6.25;;;;;;;29.03;50.85;100041.66;5053017;28;20506;-73
2021/07/11 06:13:54;;;;;;;9.85;6.10;;;;;;;29.75;49.05;100042.38;5053110;28;20071;-74
2021/07/11 06:16:23;;;;;;;11.80;6.38;;;;;;;29.21;50.56;100043.69;5055064;28;20041;-71
2021/07/11 06:18:52;;;;;;;8.63;5.80;;;;;;;28.80;50.83;100041.31;5052911;28;20053;-71
2021/07/11 06:21:20;;;;;;;8.05;6.25;;;;;;;29.54;49.15;100043.56;5051463;28;20144;-72
2021/07/11 06:23:48;;;;;;;9.48;5.70;;;;;;;29.12;49.92;100046.91;5052545;28;20480;-74
2021/07/11 06:26:17;;;;;;;8.75;5.63;;;;;;;29.62;48.80;100045.19;5051793;28;20080;-71
2021/07/11 06:28:47;;;;;;;8.95;5.70;;;;;;;29.61;48.69;100049.00;5052554;28;20099;-71
2021/07/11 06:31:16;;;;;;;10.32;6.22;;;;;;;29.11;49.24;100047.97;5052187;28;20044;-71
2021/07/11 06:33:44;;;;;;;7.68;6.00;;;;;;;29.11;49.95;100050.72;5052641;28;20041;-70
2021/07/11 06:36:12;;;;;;;9.50;6.38;;;;;;;28.65;50.75;100060.75;5052330;28;20376;-70
2021/07/11 06:38:41;;;;;;;8.40;6.20;;;;;;;29.26;49.91;100052.13;5052647;28;20049;-71
2021/07/11 06:41:09;;;;;;;8.20;6.00;;;;;;;29.77;48.35;100042.97;5052276;28;20098;-71
2021/07/11 06:43:37;;;;;;;10.88;6.10;;;;;;;29.17;49.12;100044.38;5052579;28;20044;-70
2021/07/11 06:46:06;;;;;;;8.98;6.25;;;;;;;29.84;48.37;100031.94;5052237;28;20076;-71
2021/07/11 06:48:35;;;;;;;8.35;5.95;;;;;;;29.67;48.56;100034.38;5052514;28;20098;-70
2021/07/11 06:51:03;;;;;;;8.07;6.00;;;;;;;30.39;46.48;100034.84;5050691;28;20053;-71
2021/07/11 06:53:32;;;;;;;10.38;5.95;;;;;;;30.35;46.34;100023.47;5052198;28;20045;-69
2021/07/11 06:56:01;;;;;;;10.98;5.72;;;;;;;30.80;45.36;100025.16;5051801;28;20124;-70
2021/07/11 06:58:29;;;;;;;8.20;6.45;;;;;;;30.28;46.49;100022.69;5052135;28;20049;-67
2021/07/11 07:00:57;;;;;;;9.60;6.28;;;;;;;30.75;45.42;100018.41;5052098;28;20044;-71
2021/07/11 07:03:27;;;;;;;7.85;6.38;;;;;;;29.91;47.08;100021.72;5052263;28;20076;-73
2021/07/11 07:05:55;;;;;;;9.73;6.25;;;;;;;29.38;49.25;100027.56;5053971;28;20053;-73
2021/07/11 07:08:25;;;;;;;18.52;6.70;;;;;;;28.00;52.31;100039.72;5055648;28;20041;-70
2021/07/11 07:10:54;;;;;;;10.13;6.47;;;;;;;27.69;54.04;100043.88;5056028;28;20048;-71
2021/07/11 07:13:22;;;;;;;9.68;6.43;;;;;;;27.74;54.46;100046.00;5055502;28;20045;-70
2021/07/11 07:15:51;;;;;;;9.32;6.85;;;;;;;27.83;54.17;100039.28;5055994;28;20044;-72
2021/07/11 07:18:19;;;;;;;8.13;6.32;;;;;;;27.95;53.92;100048.53;5041882;28;20053;-72
2021/07/11 07:20:49;;;;;;;10.35;7.07;;;;;;;27.64;54.95;100039.00;5035779;28;20053;-76
2021/07/11 07:23:17;;;;;;;9.48;6.85;;;;;;;27.69;54.71;100032.91;5036145;28;20128;-72
2021/07/11 07:25:46;;;;;;;9.02;6.72;;;;;;;27.86;54.53;100034.19;5035597;28;20050;-82
2021/07/11 07:28:14;;;;;;;7.63;6.50;;;;;;;27.69;54.92;100021.94;5035966;28;20107;-77
2021/07/11 07:30:42;;;;;;;9.43;6.30;;;;;;;28.08;53.39;100023.88;5035811;28;20037;-73
2021/07/11 07:33:10;;;;;;;9.43;6.13;;;;;;;28.05;53.98;100026.19;5035678;28;20088;-78
2021/07/11 07:35:39;;;;;;;9.05;6.75;;;;;;;28.12;54.48;100027.88;5037470;28;20067;-72
2021/07/11 07:38:09;;;;;;;8.85;6.30;;;;;;;28.00;53.78;100031.47;5055284;28;20060;-78
2021/07/11 07:40:37;;;;;;;11.02;6.55;;;;;;;28.21;53.38;100025.78;5055693;28;20123;-83
2021/07/11 07:43:06;;;;;;;9.80;6.30;;;;;;;28.15;52.21;100032.09;5055596;28;20443;-75
2021/07/11 07:45:35;;;;;;;7.32;6.10;;;;;;;27.98;53.15;100033.56;5055292;28;20044;-77
2021/07/11 07:48:03;;;;;;;9.90;6.80;;;;;;;28.05;53.62;100031.69;5054878;28;20072;-77
2021/07/11 07:50:32;;;;;;;8.10;6.35;;;;;;;28.18;53.84;100031.66;5055131;28;20052;-74
2021/07/11 07:53:00;;;;;;;9.20;7.40;;;;;;;28.03;54.66;100026.41;5055238;28;20068;-80
2021/07/11 07:55:31;;;;;;;8.10;7.00;;;;;;;27.99;55.08;100032.50;5054686;28;20045;-83
2021/07/11 07:58:01;;;;;;;12.00;6.57;;;;;;;28.00;52.44;100032.31;5055189;28;20048;-80
2021/07/11 08:00:29;;;;;;;8.63;6.43;;;;;;;28.50;52.64;100029.97;5053714;28;20491;-77
2021/07/11 08:02:59;;;;;;;9.05;6.63;;;;;;;28.11;53.88;100036.31;5055391;28;20045;-74
2021/07/11 08:05:29;;;;;;;8.55;6.47;;;;;;;28.52;53.28;100028.69;5054633;28;20528;-78
2021/07/11 08:07:57;;;;;;;10.23;6.70;;;;;;;28.25;54.04;100027.03;5054943;28;20047;-74
2021/07/11 08:10:26;;;;;;;8.18;6.07;;;;;;;28.29;53.34;100036.56;5053881;28;20053;-75
2021/07/11 08:12:55;;;;;;;8.82;6.07;;;;;;;28.41;52.63;100029.38;5054951;28;20423;-74
2021/07/11 08:15:24;;;;;;;8.30;6.00;;;;;;;28.34;51.78;100030.44;5054420;28;20506;-84
2021/07/11 08:17:53;;;;;;;8.73;6.57;;;;;;;28.85;50.49;100022.25;5053955;28;20049;-71
2021/07/11 08:20:23;;;;;;;8.30;6.30;;;;;;;29.03;50.87;100030.69;5054736;28;20446;-69
2021/07/11 08:22:51;;;;;;;8.38;6.03;;;;;;;29.04;50.21;100026.88;5054760;28;20415;-70
2021/07/11 08:25:20;;;;;;;8.85;5.82;;;;;;;28.55;50.95;100032.91;5053228;28;20052;-71
2021/07/11 08:27:49;;;;;;;8.90;6.15;;;;;;;28.38;51.82;100029.81;5054503;28;20037;-71
2021/07/11 08:30:20;;;;;;;7.80;5.85;;;;;;;29.19;50.22;100028.50;5054610;28;20064;-71
2021/07/11 08:32:50;;;;;;;8.38;5.50;;;;;;;29.26;48.56;100035.66;5054619;28;20045;-72
2021/07/11 08:35:18;;;;;;;8.43;5.88;;;;;;;29.31;48.51;100026.75;5054026;28;20385;-72
2021/07/11 08:37:47;;;;;;;8.45;5.50;;;;;;;29.79;46.84;100023.50;5054236;28;20041;-71
2021/07/11 08:40:15;;;;;;;8.55;5.57;;;;;;;28.89;48.82;100023.56;5054125;28;20044;-70
2021/07/11 08:42:44;;;;;;;7.65;5.72;;;;;;;28.63;50.46;100029.09;5054375;28;20419;-70
2021/07/11 08:45:13;;;;;;;9.70;6.10;;;;;;;28.68;49.80;100018.34;5053656;28;20549;-71
2021/07/11 08:47:44;;;;;;;8.20;5.88;;;;;;;28.88;49.44;100018.25;5053870;28;20048;-72
2021/07/11 08:50:14;;;;;;;9.20;5.80;;;;;;;29.16;48.73;100013.31;5054313;28;20051;-71
2021/07/11 08:52:46;;;;;;;7.95;5.25;;;;;;;29.24;47.68;100014.94;5054146;28;20076;-69
2021/07/11 08:55:18;;;;;;;8.00;5.55;;;;;;;29.79;45.91;100005.09;5053902;28;20073;-74
2021/07/11 08:57:49;;;;;;;8.77;5.30;;;;;;;30.02;45.25;100007.25;5054075;28;20037;-78
2021/07/11 09:00:19;;;;;;;8.32;5.50;;;;;;;29.69;46.70;100013.00;5053966;28;20072;-80
2021/07/11 09:02:49;;;;;;;7.55;5.10;;;;;;;29.37;46.84;100006.66;5054112;28;20041;-75
2021/07/11 09:05:25;;;;;;;9.43;5.85;;;;;;;29.39;47.51;99999.03;5053329;28;20044;-74
2021/07/11 09:07:58;;;;;;;7.32;5.68;;;;;;;29.59;46.70;99999.75;5054035;28;20043;-75
2021/07/11 09:10:31;;;;;;;8.35;5.60;;;;;;;29.79;45.69;99998.75;5053834;28;20040;-78
2021/07/11 09:13:01;;;;;;;8.20;5.75;;;;;;;29.73;46.99;100003.28;5053934;28;20037;-71
2021/07/11 09:15:32;;;;;;;7.40;5.32;;;;;;;29.75;47.05;100001.13;5052931;28;20110;-72
2021/07/11 09:18:02;;;;;;;7.45;5.60;;;;;;;30.08;46.42;99994.53;5053446;28;20064;-75
2021/07/11 09:20:48;;;;;;;9.80;6.20;;;;;;;29.93;46.68;99998.44;5053812;28;20055;-71
2021/07/11 09:23:17;;;;;;;10.63;5.60;;;;;;;29.51;46.69;100005.50;5053643;28;20045;-75
2021/07/11 09:25:56;;;;;;;9.05;5.82;;;;;;;29.34;47.10;100004.34;5053080;28;20076;-70
2021/07/11 09:28:25;;;;;;;11.43;5.75;;;;;;;29.42;47.06;99995.81;5052863;28;20065;-73
2021/07/11 09:31:05;;;;;;;7.45;5.47;;;;;;;29.41;47.27;99994.13;5053667;28;20045;-72
2021/07/11 09:33:35;;;;;;;7.50;5.72;;;;;;;29.96;46.31;99994.41;5053519;28;20044;-71
2021/07/11 09:36:06;;;;;;;9.07;5.95;;;;;;;29.99;46.86;99985.69;5052925;28;20090;-71
2021/07/11 09:38:35;;;;;;;7.97;5.88;;;;;;;29.69;47.34;99995.66;5053019;28;20053;-71
2021/07/11 09:41:20;;;;;;;11.40;6.20;;;;;;;29.51;47.83;99997.28;5053417;28;20506;-74
2021/07/11 09:43:50;;;;;;;7.93;6.43;;;;;;;29.39;47.71;100000.94;5053456;28;20450;-71
2021/07/11 09:46:20;;;;;;;8.68;6.00;;;;;;;29.30;48.27;99997.59;5052613;28;20094;-71
2021/07/11 09:48:51;;;;;;;8.27;5.85;;;;;;;29.19;48.22;99999.13;5052875;28;20053;-70
2021/07/11 09:51:23;;;;;;;9.15;5.65;;;;;;;29.61;47.33;99994.88;5053027;28;20041;-75
2021/07/11 09:53:53;;;;;;;;;;;;;;;29.90;47.38;99987.88;5053759;28;20483;-78
2021/07/11 09:56:36;;;;;;;8.73;6.00;;;;;;;30.08;47.25;99978.88;5052664;28;19921;-71
2021/07/11 09:59:05;;;;;;;;;;;;;;;30.67;44.73;99985.69;5053599;28;20049;-72
2021/07/11 10:01:35;;;;;;;8.07;5.78;;;;;;;31.00;44.30;99982.53;5052862;28;19966;-73
2021/07/11 10:04:06;;;;;;;7.82;6.00;;;;;;;31.11;44.92;99978.16;5053201;28;20045;-74
2021/07/11 10:06:36;;;;;;;8.77;6.28;;;;;;;30.38;46.21;99972.66;5052965;28;20048;-73
2021/07/11 10:09:06;;;;;;;10.00;5.90;;;;;;;30.39;45.97;99971.56;5052877;28;20041;-74
2021/07/11 10:11:35;;;;;;;9.45;5.95;;;;;;;30.13;46.64;99984.56;5051765;28;20052;-72
2021/07/11 10:14:04;;;;;;;7.30;5.85;;;;;;;30.19;46.87;99974.53;5048616;28;20053;-76
2021/07/11 10:16:36;;;;;;;8.75;5.60;;;;;;;29.86;47.15;99969.31;5050795;28;20060;-76
2021/07/11 10:19:09;;;;;;;7.53;5.80;;;;;;;30.01;47.12;99978.06;5052484;28;20529;-69
2021/07/11 10:21:39;;;;;;;7.97;5.80;;;;;;;29.76;48.22;99985.47;5051922;28;20431;-70
2021/07/11 10:24:18;;;;;;;8.38;6.20;;;;;;;29.66;48.20;99976.88;5052471;28;20068;-71
2021/07/11 10:26:46;;;;;;;10.75;6.25;;;;;;;29.73;48.03;99972.19;5052386;28;20099;-75
2021/07/11 10:29:16;;;;;;;9.30;6.18;;;;;;;29.96;47.52;99975.16;5052462;28;20388;-71
2021/07/11 10:31:46;;;;;;;9.77;5.95;;;;;;;29.94;46.83;99969.03;5052388;28;20045;-73
2021/07/11 10:34:27;;;;;;;7.95;5.43;;;;;;;29.86;47.62;99961.06;5052351;28;20068;-72
2021/07/11 10:36:56;;;;;;;9.73;5.80;;;;;;;29.77;47.56;99973.41;5052114;28;20399;-70
2021/07/11 10:39:33;;;;;;;10.95;6.55;;;;;;;29.55;49.17;99967.47;5053398;28;20053;-71
2021/07/11 10:42:02;;;;;;;9.52;6.28;;;;;;;29.62;48.48;99962.72;5056560;28;20114;-70
2021/07/11 10:44:30;;;;;;;11.27;6.30;;;;;;;29.74;48.40;99955.47;5054792;28;20136;-71
2021/07/11 10:47:00;;;;;;;10.52;7.10;;;;;;;29.81;48.90;99955.41;5055781;28;20048;-71
2021/07/11 10:49:32;;;;;;;11.93;7.00;;;;;;;29.49;49.76;99958.19;5056239;28;20045;-71
2021/07/11 10:52:03;;;;;;;10.35;7.03;;;;;;;29.44;51.76;99963.50;5056060;28;20076;-71
2021/07/11 10:54:33;;;;;;;12.80;6.68;;;;;;;29.41;50.26;99950.19;5056197;28;20087;-71
2021/07/11 10:57:04;;;;;;;15.45;7.88;;;;;;;29.21;57.67;99954.97;5056176;28;20400;-71
2021/07/11 10:59:34;;;;;;;10.35;6.60;;;;;;;29.16;51.65;99955.66;5056149;28;20049;-70
2021/07/11 11:02:06;;;;;;;8.98;6.15;;;;;;;29.07;53.17;99960.56;5055857;28;20045;-70
2021/07/11 11:04:35;;;;;;;19.13;11.38;;;;;;;29.03;67.73;99962.03;5055750;28;20040;-71
2021/07/11 11:07:14;;;;;;;14.98;9.23;;;;;;;28.42;65.02;99975.34;5055912;28;20045;-69
2021/07/11 11:09:44;;;;;;;12.95;8.15;;;;;;;28.09;63.75;99984.44;5056056;28;20095;-72
2021/07/11 11:12:26;;;;;;;14.13;8.68;;;;;;;26.99;71.66;99991.19;5055788;28;20049;-72
2021/07/11 11:14:57;;;;;;;11.13;6.72;;;;;;;26.06;76.82;99973.41;5044701;28;20433;-70
2021/07/11 11:17:33;;;;;;;11.43;7.18;;;;;;;25.50;76.10;99980.69;5055085;28;20511;-70
2021/07/11 11:20:06;;;;;;;10.63;7.20;;;;;;;25.37;76.87;99981.38;5055704;28;20060;-69
2021/07/11 11:22:36;;;;;;;10.27;7.22;;;;;;;25.18;77.52;99976.56;5055714;28;20067;-71
2021/07/11 11:25:07;;;;;;;12.40;7.82;;;;;;;24.97;78.11;99980.06;5055402;28;20047;-69
2021/07/11 11:27:38;;;;;;;9.63;7.50;;;;;;;24.89;77.42;99999.28;5055448;28;20044;-71
2021/07/11 11:30:15;;;;;;;10.90;7.20;;;;;;;24.93;78.65;99984.22;5055496;28;20037;-72
2021/07/11 11:32:49;;;;;;;8.25;6.80;;;;;;;24.79;76.00;99994.13;5055667;28;20045;-72
2021/07/11 11:35:20;;;;;;;10.90;7.90;;;;;;;24.83;80.03;100001.75;5055184;28;20120;-74
2021/07/11 11:37:50;;;;;;;9.50;7.18;;;;;;;24.81;79.65;100002.97;5055539;28;20049;-71
2021/07/11 11:40:20;;;;;;;9.02;6.85;;;;;;;24.32;77.02;99998.13;5055316;28;20048;-70